createdAt,value
2022-10-29T00:01:08.171Z,7.15
2022-10-29T00:03:55.625Z,7.63
2022-10-29T00:06:43.243Z,7.10
2022-10-29T00:09:33.675Z,7.45
2022-10-29T00:12:24.235Z,6.95
2022-10-29T00:15:13.184Z,6.75
2022-10-29T00:18:00.838Z,6.00
2022-10-29T00:20:49.862Z,6.95
2022-10-29T00:23:37.691Z,6.72
2022-10-29T00:26:26.332Z,6.45
2022-10-29T00:29:15.440Z,7.50
2022-10-29T00:32:03.033Z,7.00
2022-10-29T00:34:50.732Z,6.80
2022-10-29T00:37:38.303Z,7.05
2022-10-29T00:40:26.101Z,6.68
2022-10-29T00:43:18.038Z,6.45
2022-10-29T00:46:13.150Z,6.75
2022-10-29T00:49:01.739Z,6.75
2022-10-29T00:51:49.860Z,7.30
2022-10-29T00:54:40.916Z,6.55
2022-10-29T00:57:36.227Z,7.22
2022-10-29T01:00:24.634Z,7.25
2022-10-29T01:03:13.868Z,7.50
2022-10-29T01:06:03.400Z,7.30
2022-10-29T01:08:50.683Z,7.15
2022-10-29T01:11:56.830Z,7.45
2022-10-29T01:15:01.148Z,7.07
2022-10-29T01:18:05.834Z,6.75
2022-10-29T01:21:38.936Z,8.18
2022-10-29T01:25:02.325Z,7.13
2022-10-29T01:28:15.498Z,6.90
2022-10-29T01:31:27.392Z,7.45
2022-10-29T01:34:25.253Z,7.68
2022-10-29T01:37:21.372Z,7.05
2022-10-29T01:40:18.939Z,7.80
2022-10-29T01:43:13.549Z,6.22
2022-10-29T01:46:09.772Z,6.75
2022-10-29T01:49:05.375Z,6.13
2022-10-29T01:51:55.878Z,6.80
2022-10-29T01:54:44.901Z,6.70
2022-10-29T01:57:35.176Z,7.13
2022-10-29T02:00:23.170Z,6.35
2022-10-29T02:03:34.247Z,6.95
2022-10-29T02:06:35.325Z,6.72
2022-10-29T02:09:29.925Z,6.78
2022-10-29T02:12:25.184Z,6.22
2022-10-29T02:15:18.979Z,6.57
2022-10-29T02:18:09.386Z,6.65
2022-10-29T02:20:56.777Z,6.18
2022-10-29T02:23:48.791Z,6.30
2022-10-29T02:26:36.296Z,5.82
2022-10-29T02:29:24.488Z,6.43
2022-10-29T02:32:12.096Z,5.93
2022-10-29T02:34:59.578Z,6.70
2022-10-29T02:37:49.545Z,6.18
2022-10-29T02:40:38.628Z,6.28
2022-10-29T02:43:26.163Z,6.95
2022-10-29T02:46:16.413Z,6.50
2022-10-29T02:49:04.001Z,5.97
2022-10-29T02:51:51.557Z,7.22
2022-10-29T02:54:40.377Z,6.20
2022-10-29T02:57:29.301Z,5.95
2022-10-29T03:00:17.994Z,6.03
2022-10-29T03:03:05.788Z,5.53
2022-10-29T03:05:53.644Z,5.50
2022-10-29T03:08:40.977Z,5.60
2022-10-29T03:11:28.341Z,5.78
2022-10-29T03:14:17.561Z,5.70
2022-10-29T03:17:08.310Z,5.22
2022-10-29T03:19:55.696Z,5.85
2022-10-29T03:22:43.056Z,5.82
2022-10-29T03:25:30.824Z,5.43
2022-10-29T03:28:18.405Z,6.18
2022-10-29T03:31:07.502Z,6.03
2022-10-29T03:33:55.110Z,6.30
2022-10-29T03:36:42.534Z,6.47
2022-10-29T03:39:33.067Z,6.10
2022-10-29T03:42:21.013Z,6.35
2022-10-29T03:45:10.169Z,6.53
2022-10-29T03:47:59.094Z,6.65
2022-10-29T03:50:46.755Z,6.55
2022-10-29T03:53:35.523Z,6.00
2022-10-29T03:56:23.302Z,5.70
2022-10-29T03:59:13.522Z,5.63
2022-10-29T04:02:00.979Z,6.20
2022-10-29T04:04:50.286Z,5.32
2022-10-29T04:07:37.947Z,4.85
2022-10-29T04:10:26.019Z,5.00
2022-10-29T04:13:13.716Z,5.35
2022-10-29T04:16:01.230Z,4.85
2022-10-29T04:18:49.002Z,5.07
2022-10-29T04:31:06.738Z,4.60
2022-10-29T04:33:54.950Z,4.60
2022-10-29T04:36:43.810Z,4.45
2022-10-29T04:39:31.437Z,4.03
2022-10-29T04:42:18.860Z,4.05
2022-10-29T04:45:08.109Z,4.35
2022-10-29T04:48:01.575Z,4.50
2022-10-29T04:50:50.067Z,3.70
2022-10-29T04:53:41.107Z,3.85
2022-10-29T04:56:28.738Z,4.80
2022-10-29T04:59:16.209Z,4.75
2022-10-29T05:02:03.661Z,4.30
2022-10-29T05:04:51.473Z,4.47
2022-10-29T05:07:38.923Z,5.00
2022-10-29T05:10:29.551Z,5.07
2022-10-29T05:13:17.188Z,4.63
2022-10-29T05:16:08.332Z,4.47
2022-10-29T05:18:55.736Z,4.97
2022-10-29T05:21:43.169Z,4.82
2022-10-29T05:24:30.567Z,5.32
2022-10-29T05:27:19.532Z,4.70
2022-10-29T05:30:09.203Z,4.97
2022-10-29T05:32:57.587Z,5.78
2022-10-29T05:35:45.924Z,5.10
2022-10-29T05:38:33.381Z,5.05
2022-10-29T05:41:20.841Z,5.00
2022-10-29T05:44:09.911Z,6.70
2022-10-29T05:47:03.613Z,5.43
2022-10-29T05:49:51.755Z,5.55
2022-10-29T05:52:39.513Z,4.75
2022-10-29T05:55:27.889Z,5.18
2022-10-29T05:58:16.540Z,5.15
2022-10-29T06:01:10.936Z,5.63
2022-10-29T06:04:01.414Z,5.35
2022-10-29T06:06:49.371Z,5.47
2022-10-29T06:09:37.008Z,5.65
2022-10-29T06:12:24.292Z,5.85
2022-10-29T06:15:12.615Z,5.38
2022-10-29T06:18:01.335Z,5.00
2022-10-29T06:20:48.989Z,5.75
2022-10-29T06:23:36.801Z,4.60
2022-10-29T06:26:24.270Z,5.78
2022-10-29T06:29:11.679Z,5.35
2022-10-29T06:31:59.042Z,5.20
2022-10-29T06:34:47.782Z,5.30
2022-10-29T06:37:39.583Z,6.25
2022-10-29T06:40:27.239Z,6.50
2022-10-29T06:43:14.947Z,5.30
2022-10-29T06:46:02.604Z,5.78
2022-10-29T06:48:50.275Z,5.43
2022-10-29T06:51:39.127Z,5.65
2022-10-29T06:54:26.827Z,6.40
2022-10-29T06:57:14.173Z,6.38
2022-10-29T07:00:05.664Z,5.80
2022-10-29T07:02:57.597Z,5.88
2022-10-29T07:05:46.383Z,6.38
2022-10-29T07:08:36.213Z,6.20
2022-10-29T07:11:23.699Z,5.45
2022-10-29T07:14:11.124Z,5.45
2022-10-29T07:16:58.524Z,5.13
2022-10-29T07:19:46.151Z,5.28
2022-10-29T07:22:34.926Z,4.97
2022-10-29T07:25:23.943Z,5.82
2022-10-29T07:28:16.364Z,4.93
2022-10-29T07:31:04.053Z,5.28
2022-10-29T07:33:51.671Z,4.85
2022-10-29T07:36:39.265Z,4.80
2022-10-29T07:39:26.604Z,5.35
2022-10-29T07:42:15.586Z,5.10
2022-10-29T07:45:07.447Z,5.55
2022-10-29T07:48:02.886Z,4.90
2022-10-29T07:50:54.105Z,5.40
2022-10-29T07:53:41.667Z,4.85
2022-10-29T07:56:29.353Z,5.40
2022-10-29T07:59:19.332Z,5.18
2022-10-29T08:02:08.484Z,4.50
2022-10-29T08:04:56.053Z,4.10
2022-10-29T08:07:43.675Z,4.32
2022-10-29T08:10:32.598Z,4.85
2022-10-29T08:13:20.025Z,5.00
2022-10-29T08:16:09.626Z,4.30
2022-10-29T08:18:57.375Z,5.22
2022-10-29T08:21:44.912Z,4.18
2022-10-29T08:24:32.341Z,4.88
2022-10-29T08:27:20.172Z,4.97
2022-10-29T08:30:10.169Z,4.38
2022-10-29T08:33:00.165Z,4.50
2022-10-29T08:35:48.114Z,4.28
2022-10-29T08:38:35.455Z,3.90
2022-10-29T08:41:42.707Z,4.70
2022-10-29T08:45:25.237Z,3.50
2022-10-29T08:48:36.105Z,4.07
2022-10-29T08:51:31.707Z,4.15
2022-10-29T08:54:36.044Z,4.10
2022-10-29T08:57:26.784Z,4.65
2022-10-29T09:00:19.389Z,4.18
2022-10-29T09:03:13.805Z,4.00
2022-10-29T09:06:12.942Z,4.28
2022-10-29T09:09:25.150Z,3.70
2022-10-29T09:12:56.368Z,3.92
2022-10-29T09:16:02.607Z,3.97
2022-10-29T09:19:14.612Z,3.72
2022-10-29T09:22:18.675Z,3.30
2022-10-29T09:25:18.612Z,4.10
2022-10-29T09:28:31.161Z,3.88
2022-10-29T09:31:31.014Z,4.07
2022-10-29T09:34:32.044Z,3.70
2022-10-29T09:37:29.027Z,3.63
2022-10-29T09:40:33.280Z,3.13
2022-10-29T09:43:36.052Z,3.20
2022-10-29T09:46:37.192Z,3.33
2022-10-29T09:49:49.040Z,2.90
2022-10-29T09:52:42.041Z,3.63
2022-10-29T09:55:37.617Z,3.78
2022-10-29T09:58:28.128Z,2.80
2022-10-29T10:01:16.131Z,2.70
2022-10-29T10:04:15.084Z,3.00
2022-10-29T10:07:10.194Z,2.85
2022-10-29T10:10:23.695Z,3.08
2022-10-29T10:13:18.929Z,3.03
2022-10-29T10:16:08.733Z,2.88
2022-10-29T10:18:56.634Z,3.22
2022-10-29T10:21:44.078Z,3.50
2022-10-29T10:24:34.421Z,3.78
2022-10-29T10:27:32.851Z,3.13
2022-10-29T10:30:23.690Z,3.47
2022-10-29T10:33:26.852Z,3.00
2022-10-29T10:36:14.523Z,3.83
2022-10-29T10:39:02.463Z,3.30
2022-10-29T10:41:52.020Z,3.88
2022-10-29T10:44:50.240Z,3.75
2022-10-29T10:47:42.617Z,4.43
2022-10-29T10:50:33.944Z,3.20
2022-10-29T10:53:23.806Z,3.60
2022-10-29T10:56:21.029Z,3.22
2022-10-29T10:59:21.626Z,4.13
2022-10-29T11:02:33.763Z,3.40
2022-10-29T11:05:34.371Z,3.42
2022-10-29T11:08:30.123Z,3.75
2022-10-29T11:11:24.292Z,3.85
2022-10-29T11:17:09.784Z,3.47
2022-10-29T11:20:03.422Z,3.60
2022-10-29T11:23:02.480Z,4.03
2022-10-29T11:26:00.521Z,4.05
2022-10-29T11:28:56.521Z,3.00
2022-10-29T11:31:54.912Z,3.58
2022-10-29T11:35:04.432Z,3.83
2022-10-29T11:38:00.140Z,3.63
2022-10-29T11:40:56.151Z,3.25
2022-10-29T11:43:43.538Z,3.50
2022-10-29T11:46:53.544Z,3.03
2022-10-29T11:50:08.918Z,3.92
2022-10-29T11:53:08.664Z,4.45
2022-10-29T11:56:08.521Z,3.58
2022-10-29T11:59:12.447Z,3.30
2022-10-29T12:02:19.718Z,3.72
2022-10-29T12:05:22.899Z,3.67
2022-10-29T12:08:41.473Z,4.20
2022-10-29T12:11:43.315Z,3.60
2022-10-29T12:14:40.187Z,4.53
2022-10-29T12:17:47.220Z,4.50
2022-10-29T12:20:45.644Z,3.88
2022-10-29T12:23:46.671Z,3.72
2022-10-29T12:26:44.190Z,4.18
2022-10-29T12:29:47.955Z,4.75
2022-10-29T12:32:45.367Z,4.30
2022-10-29T12:35:56.784Z,3.97
2022-10-29T12:38:48.806Z,3.42
2022-10-29T12:41:42.680Z,4.70
2022-10-29T12:44:45.171Z,4.13
2022-10-29T12:47:40.724Z,4.30
2022-10-29T12:50:46.222Z,3.72
2022-10-29T12:53:45.330Z,4.57
2022-10-29T12:56:33.730Z,4.22
2022-10-29T12:59:36.307Z,4.63
2022-10-29T13:02:31.371Z,4.60
2022-10-29T13:05:43.281Z,4.32
2022-10-29T13:08:37.291Z,4.70
2022-10-29T13:11:45.471Z,5.63
2022-10-29T13:14:41.388Z,5.45
2022-10-29T13:17:41.115Z,6.55
2022-10-29T13:20:37.334Z,5.47
2022-10-29T13:23:37.903Z,4.97
2022-10-29T13:27:05.952Z,4.80
2022-10-29T13:30:19.209Z,4.78
2022-10-29T13:33:55.128Z,4.80
2022-10-29T13:39:31.237Z,5.15
2022-10-29T13:42:19.900Z,4.70
2022-10-29T13:45:13.120Z,5.03
2022-10-29T13:48:06.199Z,5.03
2022-10-29T13:50:56.614Z,6.07
2022-10-29T13:53:53.276Z,5.72
2022-10-29T13:56:50.267Z,6.03
2022-10-29T13:59:44.802Z,5.72
2022-10-29T14:02:48.709Z,5.93
2022-10-29T14:05:41.393Z,6.40
2022-10-29T14:08:41.903Z,6.47
2022-10-29T14:11:36.715Z,6.53
2022-10-29T14:14:34.031Z,6.35
2022-10-29T14:17:21.718Z,5.70
2022-10-29T14:20:24.099Z,6.82
2022-10-29T14:23:13.689Z,5.75
2022-10-29T14:26:04.815Z,6.53
2022-10-29T14:28:52.709Z,6.10
2022-10-29T14:31:41.825Z,6.60
2022-10-29T14:34:32.301Z,6.22
2022-10-29T14:37:28.254Z,6.00
2022-10-29T14:40:22.621Z,6.55
2022-10-29T14:43:25.283Z,6.00
2022-10-29T14:46:27.753Z,6.40
2022-10-29T14:49:21.228Z,6.70
2022-10-29T14:52:32.923Z,6.75
2022-10-29T14:55:28.590Z,6.22
2022-10-29T15:01:20.540Z,6.20
2022-10-29T15:04:20.591Z,6.30
2022-10-29T15:07:30.189Z,6.30
2022-10-29T15:10:23.552Z,5.85
2022-10-29T15:13:24.041Z,7.78
2022-10-29T15:16:22.383Z,8.50
2022-10-29T15:19:18.313Z,6.45
2022-10-29T15:22:11.971Z,6.35
2022-10-29T15:25:00.119Z,5.95
2022-10-29T15:27:53.255Z,6.60
2022-10-29T15:30:41.374Z,6.90
2022-10-29T15:33:31.472Z,6.63
2022-10-29T15:36:19.192Z,6.95
2022-10-29T15:39:26.963Z,7.55
2022-10-29T15:42:23.487Z,7.45
2022-10-29T15:45:29.966Z,6.45
2022-10-29T15:48:37.183Z,7.80
2022-10-29T15:51:28.448Z,7.18
2022-10-29T15:54:17.776Z,7.63
2022-10-29T15:57:08.473Z,7.72
2022-10-29T15:59:57.426Z,7.10
2022-10-29T16:02:57.714Z,8.40
2022-10-29T16:05:51.852Z,7.82
2022-10-29T16:08:42.457Z,8.43
2022-10-29T16:11:31.593Z,7.82
2022-10-29T16:14:23.755Z,7.35
2022-10-29T16:17:15.674Z,9.10
2022-10-29T16:20:03.007Z,8.82
2022-10-29T16:22:51.135Z,9.23
2022-10-29T16:25:40.151Z,8.80
2022-10-29T16:28:29.119Z,10.25
2022-10-29T16:31:21.255Z,9.65
2022-10-29T16:34:15.152Z,10.45
2022-10-29T16:37:05.001Z,9.93
2022-10-29T16:39:52.500Z,10.43
2022-10-29T16:42:40.583Z,11.32
2022-10-29T16:45:31.420Z,10.60
2022-10-29T16:48:21.481Z,10.50
2022-10-29T16:51:09.530Z,10.20
2022-10-29T16:53:56.951Z,11.45
2022-10-29T16:56:44.786Z,12.00
2022-10-29T16:59:32.166Z,12.57
2022-10-29T17:02:24.779Z,13.90
2022-10-29T17:05:12.468Z,14.23
2022-10-29T17:08:01.564Z,13.60
2022-10-29T17:10:49.046Z,12.32
2022-10-29T17:13:37.114Z,13.98
2022-10-29T17:16:24.900Z,14.85
2022-10-29T17:19:14.207Z,14.48
2022-10-29T17:22:04.261Z,14.85
2022-10-29T17:24:51.512Z,14.32
2022-10-29T17:27:40.490Z,14.73
2022-10-29T17:30:31.051Z,14.80
2022-10-29T17:33:19.668Z,14.40
2022-10-29T17:36:13.004Z,15.00
2022-10-29T17:39:01.087Z,14.15
2022-10-29T17:41:51.053Z,16.65
2022-10-29T17:44:41.180Z,16.00
2022-10-29T17:47:28.561Z,16.75
2022-10-29T17:50:16.238Z,17.02
2022-10-29T17:53:07.438Z,16.80
2022-10-29T17:55:58.432Z,17.38
2022-10-29T17:58:46.010Z,17.17
2022-10-29T18:01:35.137Z,18.45
2022-10-29T18:04:22.502Z,17.48
2022-10-29T18:07:10.109Z,17.13
2022-10-29T18:09:59.050Z,16.65
2022-10-29T18:12:46.979Z,16.13
2022-10-29T18:15:34.393Z,16.88
2022-10-29T18:18:24.950Z,15.95
2022-10-29T18:21:17.086Z,16.35
2022-10-29T18:24:04.842Z,15.57
2022-10-29T18:26:53.647Z,16.52
2022-10-29T18:29:41.308Z,15.98
2022-10-29T18:32:28.782Z,13.88
2022-10-29T18:35:16.357Z,13.13
2022-10-29T18:38:04.054Z,14.18
2022-10-29T18:40:56.954Z,11.68
2022-10-29T18:43:46.059Z,12.85
2022-10-29T18:46:38.099Z,11.45
2022-10-29T18:49:25.684Z,12.45
2022-10-29T18:52:14.499Z,11.10
2022-10-29T18:55:02.327Z,10.90
2022-10-29T18:57:50.079Z,12.00
2022-10-29T19:00:39.930Z,10.68
2022-10-29T19:06:15.936Z,11.13
2022-10-29T19:09:30.757Z,10.13
2022-10-29T19:12:18.140Z,10.52
2022-10-29T19:15:06.695Z,9.32
2022-10-29T19:17:58.198Z,9.38
2022-10-29T19:20:45.953Z,9.10
2022-10-29T19:23:33.669Z,8.68
2022-10-29T19:26:25.233Z,9.00
2022-10-29T19:29:13.782Z,9.10
2022-10-29T19:32:01.927Z,8.98
2022-10-29T19:34:51.214Z,9.10
2022-10-29T19:37:39.206Z,9.32
2022-10-29T19:40:26.696Z,9.20
2022-10-29T19:43:14.411Z,7.97
2022-10-29T19:46:07.383Z,8.55
2022-10-29T19:48:57.770Z,8.80
2022-10-29T19:51:46.676Z,8.38
2022-10-29T19:54:34.358Z,9.40
2022-10-29T19:57:23.698Z,7.65
2022-10-29T20:00:16.716Z,8.60
2022-10-29T20:03:05.553Z,9.15
2022-10-29T20:05:57.325Z,9.25
2022-10-29T20:08:46.326Z,8.65
2022-10-29T20:11:34.161Z,9.00
2022-10-29T20:14:26.509Z,9.27
2022-10-29T20:17:16.760Z,8.95
2022-10-29T20:20:14.170Z,9.18
2022-10-29T20:23:04.718Z,9.15
2022-10-29T20:25:55.973Z,9.15
2022-10-29T20:28:43.504Z,9.48
2022-10-29T20:31:34.725Z,9.48
2022-10-29T20:34:24.657Z,10.98
2022-10-29T20:37:12.113Z,11.10
2022-10-29T20:39:59.807Z,10.32
2022-10-29T20:42:52.208Z,11.43
2022-10-29T20:45:39.751Z,10.98
2022-10-29T20:48:27.368Z,11.80
2022-10-29T20:51:15.278Z,11.05
2022-10-29T20:54:03.085Z,11.18
2022-10-29T20:56:50.398Z,11.15
2022-10-29T20:59:39.212Z,10.65
2022-10-29T21:02:30.115Z,11.38
2022-10-29T21:05:17.465Z,11.35
2022-10-29T21:08:05.154Z,13.40
2022-10-29T21:11:00.581Z,14.25
2022-10-29T21:13:48.303Z,14.82
2022-10-29T21:16:36.997Z,15.82
2022-10-29T21:19:25.943Z,15.55
2022-10-29T21:22:14.989Z,16.58
2022-10-29T21:25:02.557Z,19.45
2022-10-29T21:27:52.979Z,17.92
2022-10-29T21:30:42.786Z,17.98
2022-10-29T21:33:31.571Z,16.80
2022-10-29T21:36:19.789Z,17.08
2022-10-29T21:39:10.018Z,16.30
2022-10-29T21:41:57.702Z,15.90
2022-10-29T21:44:45.247Z,16.83
2022-10-29T21:47:32.568Z,16.42
2022-10-29T21:50:21.358Z,15.95
2022-10-29T21:53:09.774Z,16.77
2022-10-29T21:56:00.864Z,15.13
2022-10-29T21:58:48.202Z,13.80
2022-10-29T22:01:35.950Z,15.57
2022-10-29T22:04:23.736Z,15.77
2022-10-29T22:07:12.549Z,17.05
2022-10-29T22:10:00.234Z,16.63
2022-10-29T22:12:47.657Z,18.73
2022-10-29T22:15:35.269Z,17.88
2022-10-29T22:18:25.051Z,19.05
2022-10-29T22:21:15.550Z,17.27
2022-10-29T22:24:07.538Z,18.60
2022-10-29T22:26:54.919Z,17.73
2022-10-29T22:29:42.608Z,17.35
2022-10-29T22:33:13.370Z,16.60
2022-10-29T22:36:10.565Z,17.42
2022-10-29T22:39:13.036Z,17.65
2022-10-29T22:42:01.904Z,18.10
2022-10-29T22:44:52.064Z,15.40
2022-10-29T22:47:39.809Z,15.82
2022-10-29T22:50:44.107Z,15.70
2022-10-29T22:53:38.587Z,16.65
2022-10-29T22:56:37.863Z,15.88
2022-10-29T22:59:26.607Z,15.45
2022-10-29T23:02:14.450Z,14.27
2022-10-29T23:05:05.191Z,15.88
2022-10-29T23:07:52.625Z,15.23
2022-10-29T23:10:40.183Z,14.57
2022-10-29T23:13:27.883Z,14.15
2022-10-29T23:17:08.172Z,14.30
2022-10-29T23:19:59.703Z,13.85
2022-10-29T23:26:26.427Z,13.85
2022-10-29T23:29:18.518Z,13.25
2022-10-29T23:32:06.536Z,13.63
2022-10-29T23:34:57.839Z,15.10
2022-10-29T23:37:45.690Z,13.50
2022-10-29T23:40:33.016Z,13.52
2022-10-29T23:43:20.587Z,14.13
2022-10-29T23:46:08.411Z,14.45
2022-10-29T23:48:56.459Z,16.08
2022-10-29T23:51:51.315Z,14.57
2022-10-29T23:57:28.925Z,14.40
